createdAt,value
2023-05-10T00:00:50.955Z,17.60
2023-05-10T00:03:21.509Z,17.44
2023-05-10T00:05:52.419Z,17.73
2023-05-10T00:08:23.057Z,18.01
2023-05-10T00:10:53.719Z,17.88
2023-05-10T00:13:24.982Z,17.50
2023-05-10T00:15:56.816Z,17.27
2023-05-10T00:18:27.504Z,16.74
2023-05-10T00:20:58.034Z,16.79
2023-05-10T00:23:28.565Z,17.62
2023-05-10T00:25:59.063Z,17.98
2023-05-10T00:28:30.976Z,18.30
2023-05-10T00:31:01.521Z,18.28
2023-05-10T00:33:33.231Z,18.09
2023-05-10T00:36:04.020Z,18.91
2023-05-10T00:38:34.868Z,19.04
2023-05-10T00:41:06.758Z,18.72
2023-05-10T00:43:38.779Z,18.35
2023-05-10T00:46:09.673Z,18.43
2023-05-10T00:48:41.405Z,18.16
2023-05-10T00:51:11.636Z,17.85
2023-05-10T00:53:42.104Z,17.60
2023-05-10T00:56:13.050Z,17.67
2023-05-10T00:58:43.856Z,17.63
2023-05-10T01:01:14.608Z,17.56
2023-05-10T01:03:45.126Z,17.50
2023-05-10T01:06:15.807Z,16.82
2023-05-10T01:08:46.301Z,16.21
2023-05-10T01:11:17.861Z,16.07
2023-05-10T01:13:49.512Z,15.98
2023-05-10T01:16:20.653Z,16.32
2023-05-10T01:18:51.692Z,16.63
2023-05-10T01:21:26.794Z,16.60
2023-05-10T01:23:57.283Z,16.61
2023-05-10T01:26:36.755Z,16.36
2023-05-10T01:29:07.245Z,16.22
2023-05-10T01:31:43.930Z,16.09
2023-05-10T01:34:19.625Z,15.84
2023-05-10T01:37:04.691Z,16.06
2023-05-10T01:39:39.703Z,15.85
2023-05-10T01:42:11.394Z,15.76
2023-05-10T01:45:00.256Z,15.66
2023-05-10T01:47:42.082Z,15.67
2023-05-10T01:50:20.735Z,15.69
2023-05-10T01:52:53.396Z,15.74
2023-05-10T01:55:24.980Z,16.03
2023-05-10T01:57:56.412Z,16.12
2023-05-10T02:00:27.359Z,16.01
2023-05-10T02:02:58.108Z,16.50
2023-05-10T02:05:29.931Z,17.28
2023-05-10T02:08:00.758Z,17.92
2023-05-10T02:10:32.334Z,17.05
2023-05-10T02:13:03.535Z,16.59
2023-05-10T02:15:35.036Z,16.43
2023-05-10T02:18:06.427Z,16.47
2023-05-10T02:20:36.777Z,16.60
2023-05-10T02:23:07.317Z,16.42
2023-05-10T02:25:39.338Z,16.19
2023-05-10T02:28:11.372Z,16.03
2023-05-10T02:30:42.028Z,15.91
2023-05-10T02:33:12.370Z,15.54
2023-05-10T02:35:43.251Z,15.45
2023-05-10T02:38:14.285Z,15.50
2023-05-10T02:40:45.248Z,15.55
2023-05-10T02:43:16.699Z,15.38
2023-05-10T02:45:47.470Z,15.39
2023-05-10T02:48:18.780Z,15.52
2023-05-10T02:50:53.592Z,15.56
2023-05-10T02:53:35.127Z,15.57
2023-05-10T02:56:09.527Z,15.74
2023-05-10T02:58:40.463Z,15.84
2023-05-10T03:01:11.560Z,16.08
2023-05-10T03:03:42.191Z,16.21
2023-05-10T03:06:12.666Z,16.37
2023-05-10T03:08:43.156Z,16.66
2023-05-10T03:11:18.267Z,16.70
2023-05-10T03:14:09.354Z,16.59
2023-05-10T03:16:45.040Z,17.06
2023-05-10T03:19:30.256Z,16.95
2023-05-10T03:22:02.695Z,16.72
2023-05-10T03:24:37.195Z,17.30
2023-05-10T03:27:08.146Z,17.14
2023-05-10T03:29:38.475Z,16.98
2023-05-10T03:32:08.990Z,16.60
2023-05-10T03:34:44.025Z,16.69
2023-05-10T03:37:14.696Z,16.75
2023-05-10T03:39:45.265Z,16.55
2023-05-10T03:42:15.996Z,16.54
2023-05-10T03:44:46.512Z,16.67
2023-05-10T03:47:17.296Z,16.49
2023-05-10T03:49:47.932Z,16.49
2023-05-10T03:52:18.461Z,16.43
2023-05-10T03:54:49.401Z,16.31
2023-05-10T03:57:20.102Z,16.28
2023-05-10T03:59:50.515Z,16.26
2023-05-10T04:02:21.241Z,15.97
2023-05-10T04:04:51.670Z,16.07
2023-05-10T04:07:22.260Z,16.17
2023-05-10T04:09:53.033Z,16.01
2023-05-10T04:12:25.817Z,15.98
2023-05-10T04:14:56.481Z,15.81
2023-05-10T04:17:27.226Z,15.87
2023-05-10T04:19:57.839Z,15.85
2023-05-10T04:22:29.018Z,15.77
2023-05-10T04:24:59.653Z,15.69
2023-05-10T04:27:30.193Z,15.55
2023-05-10T04:30:01.220Z,15.32
2023-05-10T04:32:33.948Z,15.26
2023-05-10T04:35:06.165Z,15.22
2023-05-10T04:37:36.489Z,15.09
2023-05-10T04:40:07.898Z,15.07
2023-05-10T04:42:38.442Z,14.88
2023-05-10T04:45:09.733Z,14.76
2023-05-10T04:47:40.620Z,14.69
2023-05-10T04:50:11.602Z,14.68
2023-05-10T04:52:42.222Z,14.76
2023-05-10T04:55:12.485Z,14.61
2023-05-10T04:57:43.009Z,14.54
2023-05-10T05:00:14.087Z,14.38
2023-05-10T05:02:50.808Z,14.02
2023-05-10T05:05:21.455Z,13.79
2023-05-10T05:07:52.012Z,13.97
2023-05-10T05:10:22.620Z,14.19
2023-05-10T05:12:53.795Z,14.26
2023-05-10T05:15:24.668Z,14.25
2023-05-10T05:17:55.292Z,14.36
2023-05-10T05:20:25.966Z,14.39
2023-05-10T05:22:56.922Z,14.44
2023-05-10T05:25:27.523Z,14.44
2023-05-10T05:27:58.464Z,14.27
2023-05-10T05:30:29.377Z,14.06
2023-05-10T05:32:59.891Z,13.72
2023-05-10T05:35:30.892Z,13.47
2023-05-10T05:38:01.759Z,13.45
2023-05-10T05:40:32.333Z,13.30
2023-05-10T05:43:03.043Z,13.15
2023-05-10T05:45:33.981Z,12.98
2023-05-10T05:48:04.573Z,12.97
2023-05-10T05:50:35.373Z,12.89
2023-05-10T05:53:06.036Z,12.88
2023-05-10T05:55:36.808Z,12.92
2023-05-10T05:58:07.444Z,13.15
2023-05-10T06:00:38.418Z,13.18
2023-05-10T06:03:09.642Z,13.04
2023-05-10T06:05:40.381Z,13.17
2023-05-10T06:08:11.126Z,13.28
2023-05-10T06:10:41.798Z,13.28
2023-05-10T06:13:13.297Z,13.37
2023-05-10T06:15:43.951Z,13.37
2023-05-10T06:18:15.086Z,13.07
2023-05-10T06:20:45.841Z,13.02
2023-05-10T06:23:16.678Z,12.92
2023-05-10T06:25:46.876Z,12.89
2023-05-10T06:28:17.246Z,12.81
2023-05-10T06:30:47.808Z,12.68
2023-05-10T06:33:18.532Z,12.70
2023-05-10T06:35:49.412Z,12.72
2023-05-10T06:38:19.931Z,12.62
2023-05-10T06:40:50.562Z,12.75
2023-05-10T06:43:21.090Z,12.40
2023-05-10T06:45:51.629Z,12.27
2023-05-10T06:48:22.216Z,11.72
2023-05-10T06:50:52.767Z,11.77
2023-05-10T06:53:23.527Z,11.62
2023-05-10T06:55:54.236Z,11.96
2023-05-10T06:58:24.917Z,11.48
2023-05-10T07:00:55.590Z,11.66
2023-05-10T07:03:26.159Z,11.51
2023-05-10T07:05:57.588Z,11.66
2023-05-10T07:08:28.260Z,11.52
2023-05-10T07:11:12.626Z,11.55
2023-05-10T07:13:46.634Z,11.41
2023-05-10T07:16:17.368Z,11.61
2023-05-10T07:18:47.717Z,11.62
2023-05-10T07:21:18.339Z,11.55
2023-05-10T07:23:48.905Z,11.63
2023-05-10T07:26:19.376Z,11.69
2023-05-10T07:28:49.963Z,11.69
2023-05-10T07:31:20.348Z,11.85
2023-05-10T07:33:51.074Z,11.91
2023-05-10T07:36:22.003Z,12.02
2023-05-10T07:38:52.633Z,11.94
2023-05-10T07:41:23.716Z,12.04
2023-05-10T07:43:54.498Z,12.07
2023-05-10T07:46:25.125Z,12.19
2023-05-10T07:48:55.792Z,12.31
2023-05-10T07:51:26.327Z,12.30
2023-05-10T07:53:57.223Z,12.24
2023-05-10T07:56:32.170Z,12.25
2023-05-10T07:59:02.808Z,12.41
2023-05-10T08:01:35.027Z,12.44
2023-05-10T08:04:06.014Z,12.36
2023-05-10T08:06:36.698Z,12.37
2023-05-10T08:09:07.744Z,12.38
2023-05-10T08:11:38.343Z,12.33
2023-05-10T08:14:09.531Z,12.34
2023-05-10T08:16:40.472Z,12.18
2023-05-10T08:19:11.416Z,12.11
2023-05-10T08:21:44.835Z,12.13
2023-05-10T08:24:15.465Z,12.08
2023-05-10T08:26:46.364Z,11.97
2023-05-10T08:29:17.430Z,11.76
2023-05-10T08:31:48.489Z,11.69
2023-05-10T08:34:19.195Z,11.64
2023-05-10T08:36:49.817Z,11.70
2023-05-10T08:39:29.686Z,11.71
2023-05-10T08:42:01.684Z,11.67
2023-05-10T08:44:33.000Z,11.59
2023-05-10T08:47:05.932Z,11.49
2023-05-10T08:49:37.274Z,11.50
2023-05-10T08:52:08.080Z,11.48
2023-05-10T08:54:38.661Z,11.57
2023-05-10T08:57:09.301Z,11.50
2023-05-10T08:59:41.832Z,11.50
2023-05-10T09:02:12.964Z,11.41
2023-05-10T09:04:44.446Z,11.43
2023-05-10T09:07:15.250Z,11.38
2023-05-10T09:09:46.108Z,11.46
2023-05-10T09:12:18.087Z,11.48
2023-05-10T09:14:49.173Z,11.51
2023-05-10T09:17:19.859Z,11.53
2023-05-10T09:19:50.914Z,11.58
2023-05-10T09:22:21.430Z,11.78
2023-05-10T09:24:52.204Z,11.76
2023-05-10T09:27:29.308Z,11.69
2023-05-10T09:29:59.988Z,11.60
2023-05-10T09:32:50.885Z,11.60
2023-05-10T09:35:22.550Z,11.60
2023-05-10T09:37:53.984Z,11.61
2023-05-10T09:40:25.412Z,11.66
2023-05-10T09:42:57.506Z,11.59
2023-05-10T09:45:28.738Z,11.69
2023-05-10T09:47:59.677Z,11.83
2023-05-10T09:50:30.357Z,11.86
2023-05-10T09:53:01.772Z,11.96
2023-05-10T09:55:48.421Z,11.85
2023-05-10T09:58:19.054Z,11.86
2023-05-10T10:00:54.837Z,11.90
2023-05-10T10:03:29.687Z,11.80
2023-05-10T10:06:00.990Z,11.74
2023-05-10T10:08:31.575Z,11.76
2023-05-10T10:11:02.455Z,11.96
2023-05-10T10:13:34.624Z,12.06
2023-05-10T10:16:06.644Z,12.05
2023-05-10T10:18:37.482Z,12.14
2023-05-10T10:21:11.320Z,12.18
2023-05-10T10:23:42.154Z,12.31
2023-05-10T10:26:12.761Z,12.34
2023-05-10T10:28:43.601Z,12.34
2023-05-10T10:31:23.620Z,12.34
2023-05-10T10:34:05.149Z,12.20
2023-05-10T10:36:39.385Z,12.26
2023-05-10T10:39:11.906Z,12.20
2023-05-10T10:41:46.930Z,12.12
2023-05-10T10:44:29.753Z,11.96
2023-05-10T10:47:14.153Z,12.04
2023-05-10T10:49:44.453Z,12.01
2023-05-10T10:52:18.943Z,11.89
2023-05-10T10:54:53.883Z,11.90
2023-05-10T10:57:24.601Z,11.87
2023-05-10T10:59:57.909Z,11.87
2023-05-10T11:02:44.538Z,11.99
2023-05-10T11:05:33.724Z,12.11
2023-05-10T11:08:10.262Z,11.99
2023-05-10T11:10:41.470Z,11.95
2023-05-10T11:13:12.752Z,11.93
2023-05-10T11:15:43.755Z,11.87
2023-05-10T11:18:21.464Z,11.81
2023-05-10T11:21:14.418Z,11.83
2023-05-10T11:23:52.876Z,11.84
2023-05-10T11:26:25.599Z,11.75
2023-05-10T11:29:02.106Z,11.73
2023-05-10T11:31:32.747Z,11.66
2023-05-10T11:34:06.354Z,11.77
2023-05-10T11:36:37.655Z,11.65
2023-05-10T11:39:08.463Z,11.50
2023-05-10T11:41:39.638Z,11.54
2023-05-10T11:44:12.057Z,11.50
2023-05-10T11:46:42.742Z,11.36
2023-05-10T11:49:14.181Z,11.34
2023-05-10T11:51:46.042Z,11.18
2023-05-10T11:54:16.558Z,11.21
2023-05-10T11:56:48.040Z,11.37
2023-05-10T11:59:18.731Z,11.25
2023-05-10T12:01:49.410Z,11.23
2023-05-10T12:04:19.937Z,11.22
2023-05-10T12:06:50.730Z,11.31
2023-05-10T12:09:31.510Z,11.26
2023-05-10T12:12:06.567Z,11.32
2023-05-10T12:14:40.020Z,11.28
2023-05-10T12:17:14.419Z,11.20
2023-05-10T12:19:46.272Z,11.19
2023-05-10T12:22:16.663Z,11.20
2023-05-10T12:24:48.550Z,11.24
2023-05-10T12:27:19.835Z,11.23
2023-05-10T12:29:50.543Z,11.41
2023-05-10T12:32:21.128Z,11.43
2023-05-10T12:34:51.912Z,11.45
2023-05-10T12:37:26.789Z,11.58
2023-05-10T12:39:57.446Z,11.55
2023-05-10T12:42:28.291Z,11.63
2023-05-10T12:44:59.880Z,11.61
2023-05-10T12:47:30.613Z,11.75
2023-05-10T12:50:02.660Z,11.71
2023-05-10T12:52:34.652Z,11.76
2023-05-10T12:55:05.859Z,11.83
2023-05-10T12:57:36.662Z,11.70
2023-05-10T13:00:08.058Z,11.64
2023-05-10T13:02:38.694Z,11.60
2023-05-10T13:05:10.003Z,11.52
2023-05-10T13:07:40.934Z,11.52
2023-05-10T13:10:11.362Z,11.54
2023-05-10T13:12:42.731Z,11.72
2023-05-10T13:15:13.675Z,11.55
2023-05-10T13:17:45.293Z,11.57
2023-05-10T13:20:17.337Z,11.57
2023-05-10T13:22:48.530Z,11.64
2023-05-10T13:25:19.914Z,11.54
2023-05-10T13:27:50.675Z,11.57
2023-05-10T13:30:21.370Z,11.66
2023-05-10T13:32:52.707Z,11.63
2023-05-10T13:35:23.767Z,11.80
2023-05-10T13:37:55.857Z,11.82
2023-05-10T13:40:26.277Z,11.81
2023-05-10T13:42:56.997Z,11.89
2023-05-10T13:45:27.346Z,11.90
2023-05-10T13:47:58.078Z,11.93
2023-05-10T13:50:29.438Z,11.77
2023-05-10T13:53:00.057Z,10.74
2023-05-10T13:55:31.171Z,9.69
2023-05-10T13:58:01.850Z,9.38
2023-05-10T14:00:32.130Z,9.54
2023-05-10T14:03:03.217Z,9.87
2023-05-10T14:05:34.175Z,9.85
2023-05-10T14:08:05.239Z,9.87
2023-05-10T14:10:35.499Z,9.98
2023-05-10T14:13:06.034Z,10.01
2023-05-10T14:15:36.934Z,10.00
2023-05-10T14:18:07.599Z,10.04
2023-05-10T14:20:39.270Z,10.03
2023-05-10T14:23:11.243Z,9.99
2023-05-10T14:25:45.001Z,10.02
2023-05-10T14:28:15.759Z,9.98
2023-05-10T14:30:46.493Z,9.94
2023-05-10T14:33:16.882Z,9.79
2023-05-10T14:35:49.165Z,9.87
2023-05-10T14:38:19.697Z,9.88
2023-05-10T14:40:50.503Z,9.70
2023-05-10T14:43:21.323Z,9.64
2023-05-10T14:45:54.803Z,9.71
2023-05-10T14:48:25.573Z,9.76
2023-05-10T14:50:56.075Z,9.68
2023-05-10T14:53:26.682Z,9.69
2023-05-10T14:55:57.521Z,9.69
2023-05-10T14:58:27.851Z,9.67
2023-05-10T15:00:59.351Z,9.64
2023-05-10T15:03:30.560Z,9.67
2023-05-10T15:06:01.938Z,9.56
2023-05-10T15:08:32.718Z,9.53
2023-05-10T15:11:03.982Z,9.57
2023-05-10T15:13:34.809Z,9.60
2023-05-10T15:16:05.711Z,9.76
2023-05-10T15:18:36.643Z,9.83
2023-05-10T15:21:08.184Z,9.89
2023-05-10T15:23:38.996Z,9.91
2023-05-10T15:26:10.380Z,9.84
2023-05-10T15:28:41.101Z,9.81
2023-05-10T15:31:11.887Z,9.89
2023-05-10T15:33:42.603Z,9.99
2023-05-10T15:36:13.494Z,10.01
2023-05-10T15:38:44.080Z,9.91
2023-05-10T15:41:14.853Z,9.96
2023-05-10T15:43:45.749Z,10.08
2023-05-10T15:46:16.534Z,10.18
2023-05-10T15:48:47.197Z,10.21
2023-05-10T15:51:17.763Z,10.20
2023-05-10T15:54:05.379Z,10.05
2023-05-10T15:56:38.037Z,10.09
2023-05-10T15:59:10.074Z,10.11
2023-05-10T16:01:40.605Z,10.17
2023-05-10T16:04:11.296Z,10.14
2023-05-10T16:06:42.119Z,10.19
2023-05-10T16:09:12.475Z,10.19
2023-05-10T16:11:43.645Z,10.25
2023-05-10T16:14:14.166Z,10.27
2023-05-10T16:16:45.190Z,10.30
2023-05-10T16:19:15.981Z,10.34
2023-05-10T16:21:47.533Z,10.38
2023-05-10T16:24:17.922Z,10.23
2023-05-10T16:26:48.683Z,10.30
2023-05-10T16:29:19.282Z,10.26
2023-05-10T16:31:49.792Z,10.09
2023-05-10T16:34:22.099Z,10.03
2023-05-10T16:36:53.103Z,9.98
2023-05-10T16:39:23.770Z,9.95
2023-05-10T16:41:54.393Z,9.92
2023-05-10T16:44:25.963Z,9.80
2023-05-10T16:46:57.279Z,9.76
2023-05-10T16:49:28.396Z,9.83
2023-05-10T16:51:58.926Z,9.61
2023-05-10T16:54:30.418Z,9.53
2023-05-10T16:57:00.732Z,9.48
2023-05-10T16:59:31.663Z,9.53
2023-05-10T17:02:02.346Z,9.52
2023-05-10T17:04:32.822Z,9.61
2023-05-10T17:07:02.978Z,9.56
2023-05-10T17:09:33.314Z,9.61
2023-05-10T17:12:05.237Z,9.56
2023-05-10T17:14:36.174Z,9.53
2023-05-10T17:17:07.003Z,9.51
2023-05-10T17:19:37.828Z,9.58
2023-05-10T17:22:09.068Z,9.56
2023-05-10T17:24:39.841Z,9.49
2023-05-10T17:27:10.566Z,9.76
2023-05-10T17:29:41.213Z,10.13
2023-05-10T17:32:11.670Z,10.03
2023-05-10T17:34:42.264Z,10.00
2023-05-10T17:37:13.626Z,9.75
2023-05-10T17:39:44.293Z,9.71
2023-05-10T17:42:17.835Z,9.71
2023-05-10T17:44:48.211Z,9.96
2023-05-10T17:47:19.542Z,9.83
2023-05-10T17:49:50.002Z,9.88
2023-05-10T17:52:20.600Z,10.00
2023-05-10T17:54:50.947Z,9.98
2023-05-10T17:57:22.240Z,9.89
2023-05-10T17:59:52.875Z,10.06
2023-05-10T18:02:23.370Z,10.09
2023-05-10T18:04:54.116Z,10.04
2023-05-10T18:07:25.477Z,10.12
2023-05-10T18:09:56.149Z,10.12
2023-05-10T18:12:27.068Z,10.13
2023-05-10T18:14:57.850Z,10.03
2023-05-10T18:17:28.477Z,10.06
2023-05-10T18:19:59.109Z,10.00
2023-05-10T18:22:32.183Z,9.79
2023-05-10T18:25:02.967Z,9.61
2023-05-10T18:27:33.459Z,9.48
2023-05-10T18:30:04.114Z,9.36
2023-05-10T18:32:34.786Z,9.33
2023-05-10T18:35:05.922Z,9.24
2023-05-10T18:37:37.117Z,9.13
2023-05-10T18:40:11.127Z,9.05
2023-05-10T18:42:42.086Z,9.17
2023-05-10T18:45:14.036Z,9.03
2023-05-10T18:47:44.643Z,9.19
2023-05-10T18:50:15.610Z,9.24
2023-05-10T18:52:46.487Z,9.30
2023-05-10T18:55:17.172Z,9.40
2023-05-10T18:57:48.198Z,9.21
2023-05-10T19:00:20.059Z,9.35
2023-05-10T19:02:50.925Z,9.82
2023-05-10T19:05:21.781Z,10.00
2023-05-10T19:07:52.614Z,10.12
2023-05-10T19:10:23.254Z,10.12
2023-05-10T19:12:54.009Z,10.02
2023-05-10T19:15:25.365Z,9.95
2023-05-10T19:17:57.571Z,10.01
2023-05-10T19:20:30.117Z,10.01
2023-05-10T19:23:09.855Z,10.05
2023-05-10T19:25:41.157Z,10.16
2023-05-10T19:28:12.427Z,10.26
2023-05-10T19:30:44.404Z,10.34
2023-05-10T19:33:15.121Z,10.25
2023-05-10T19:35:45.905Z,10.18
2023-05-10T19:38:16.462Z,10.21
2023-05-10T19:40:46.941Z,10.11
2023-05-10T19:43:18.046Z,10.19
2023-05-10T19:45:49.024Z,10.15
2023-05-10T19:48:19.911Z,10.16
2023-05-10T19:50:50.800Z,10.15
2023-05-10T19:53:21.560Z,10.25
2023-05-10T19:55:52.194Z,10.25
2023-05-10T19:58:22.815Z,10.32
2023-05-10T20:00:53.250Z,10.49
2023-05-10T20:03:24.341Z,10.66
2023-05-10T20:05:54.878Z,10.81
2023-05-10T20:08:25.464Z,10.98
2023-05-10T20:10:55.981Z,11.04
2023-05-10T20:13:29.446Z,11.04
2023-05-10T20:16:00.934Z,11.07
2023-05-10T20:18:31.375Z,11.04
2023-05-10T20:21:02.193Z,11.04
2023-05-10T20:23:33.319Z,11.07
2023-05-10T20:26:04.222Z,11.07
2023-05-10T20:28:34.849Z,11.08
2023-05-10T20:31:05.544Z,11.22
2023-05-10T20:33:36.202Z,11.35
2023-05-10T20:36:07.059Z,11.51
2023-05-10T20:38:38.319Z,11.63
2023-05-10T20:41:09.435Z,11.71
2023-05-10T20:43:40.202Z,11.66
2023-05-10T20:46:11.042Z,11.68
2023-05-10T20:48:41.717Z,11.72
2023-05-10T20:51:12.409Z,11.73
2023-05-10T20:53:43.337Z,11.75
2023-05-10T20:56:13.974Z,11.80
2023-05-10T20:58:44.762Z,11.88
2023-05-10T21:01:15.468Z,11.91
2023-05-10T21:03:45.830Z,11.84
2023-05-10T21:06:16.451Z,11.77
2023-05-10T21:08:47.442Z,11.76
2023-05-10T21:11:18.061Z,11.82
2023-05-10T21:13:48.969Z,11.87
2023-05-10T21:16:19.589Z,11.74
2023-05-10T21:18:50.214Z,11.64
2023-05-10T21:21:20.921Z,11.83
2023-05-10T21:23:52.129Z,11.85
2023-05-10T21:26:23.218Z,11.83
2023-05-10T21:28:53.853Z,11.81
2023-05-10T21:31:24.374Z,11.77
2023-05-10T21:33:54.828Z,11.84
2023-05-10T21:36:26.270Z,11.95
2023-05-10T21:38:56.715Z,12.10
2023-05-10T21:41:27.171Z,12.04
2023-05-10T21:43:57.939Z,12.19
2023-05-10T21:46:28.320Z,12.31
2023-05-10T21:48:58.795Z,12.33
2023-05-10T21:51:30.682Z,12.56
2023-05-10T21:54:01.172Z,13.73
2023-05-10T21:56:31.611Z,14.66
2023-05-10T21:59:02.007Z,14.93
2023-05-10T22:01:32.700Z,14.60
2023-05-10T22:04:03.037Z,14.33
2023-05-10T22:06:33.713Z,14.71
2023-05-10T22:09:04.064Z,14.58
2023-05-10T22:11:34.305Z,15.33
2023-05-10T22:14:04.502Z,15.47
2023-05-10T22:16:35.002Z,14.40
2023-05-10T22:19:05.527Z,13.48
2023-05-10T22:21:35.839Z,12.48
2023-05-10T22:24:06.797Z,12.33
2023-05-10T22:26:37.159Z,12.16
2023-05-10T22:29:07.548Z,11.86
2023-05-10T22:31:37.845Z,11.67
2023-05-10T22:34:08.133Z,11.71
2023-05-10T22:36:38.781Z,11.57
2023-05-10T22:39:09.221Z,11.36
2023-05-10T22:41:39.959Z,11.43
2023-05-10T22:44:10.461Z,11.19
2023-05-10T22:46:41.033Z,11.00
2023-05-10T22:49:12.006Z,11.70
2023-05-10T22:51:42.621Z,11.65
2023-05-10T22:54:13.020Z,11.80
2023-05-10T22:56:44.031Z,11.63
2023-05-10T22:59:14.499Z,11.49
2023-05-10T23:01:45.130Z,11.43
2023-05-10T23:04:15.894Z,11.74
2023-05-10T23:06:47.342Z,12.86
2023-05-10T23:09:18.938Z,13.60
2023-05-10T23:11:49.307Z,13.24
2023-05-10T23:14:19.699Z,13.52
2023-05-10T23:16:50.133Z,14.30
2023-05-10T23:19:20.612Z,13.68
2023-05-10T23:21:50.906Z,13.60
2023-05-10T23:24:21.808Z,13.85
2023-05-10T23:26:52.683Z,13.77
2023-05-10T23:29:22.870Z,14.02
2023-05-10T23:31:53.817Z,13.18
2023-05-10T23:34:24.217Z,12.74
2023-05-10T23:36:54.708Z,12.89
2023-05-10T23:39:24.977Z,13.08
2023-05-10T23:41:55.661Z,13.70
2023-05-10T23:44:26.247Z,13.72
2023-05-10T23:46:56.844Z,15.46
2023-05-10T23:49:27.458Z,14.90
2023-05-10T23:51:57.680Z,14.93
2023-05-10T23:54:27.840Z,13.99
2023-05-10T23:56:58.036Z,14.08
2023-05-10T23:59:28.701Z,13.92
